Time;durP1;ratioP1;P1;durP2;ratioP2;P2;SDS_P1;SDS_P2;PMS_P1;PMS_P2;Temp;Humidity;BMP_temperature;BMP_pressure;BME280_temperature;BME280_humidity;BME280_pressure;Samples;Min_cycle;Max_cycle;Signal;HPM_P1;HPM_P2
2021/05/17 00:00:47;;;;;;;1.80;0.80;;;10.90;91.80;;;;;;5092472;28;20235;-73
2021/05/17 00:03:14;;;;;;;1.50;0.80;;;11.00;91.90;;;;;;5092319;28;20185;-74
2021/05/17 00:05:42;;;;;;;1.67;0.80;;;11.00;91.70;;;;;;5111321;28;20196;-73
2021/05/17 00:08:09;;;;;;;1.83;0.90;;;11.00;91.60;;;;;;5108723;28;20192;-73
2021/05/17 00:10:36;;;;;;;1.65;0.77;;;10.90;91.50;;;;;;5092321;28;20540;-73
2021/05/17 00:13:03;;;;;;;1.50;0.82;;;10.90;91.50;;;;;;5093798;28;20242;-73
2021/05/17 00:15:31;;;;;;;2.83;0.80;;;11.00;91.40;;;;;;5112445;28;20216;-73
2021/05/17 00:17:58;;;;;;;1.55;0.75;;;11.00;91.40;;;;;;5111511;28;20245;-73
2021/05/17 00:20:26;;;;;;;1.60;0.70;;;10.90;91.20;;;;;;5092286;28;20550;-73
2021/05/17 00:22:53;;;;;;;2.05;0.95;;;10.90;91.20;;;;;;5091728;28;20193;-73
2021/05/17 00:25:23;;;;;;;1.90;1.00;;;10.90;91.10;;;;;;5112447;28;20269;-73
2021/05/17 00:27:51;;;;;;;3.15;1.23;;;10.90;91.10;;;;;;5112565;28;20189;-73
2021/05/17 00:30:19;;;;;;;1.83;1.33;;;10.90;91.20;;;;;;5112379;28;20189;-73
2021/05/17 00:32:47;;;;;;;2.67;1.60;;;10.90;91.10;;;;;;5115972;28;20212;-74
2021/05/17 00:35:15;;;;;;;1.95;1.02;;;10.90;91.00;;;;;;5095809;28;20683;-73
2021/05/17 00:37:42;;;;;;;2.30;1.42;;;10.90;91.00;;;;;;5095999;28;20209;-73
2021/05/17 00:40:11;;;;;;;3.70;1.30;;;10.90;91.00;;;;;;5113957;28;20290;-72
2021/05/17 00:42:38;;;;;;;2.33;1.38;;;10.80;90.90;;;;;;5116227;28;20196;-72
2021/05/17 00:45:07;;;;;;;1.70;0.90;;;10.80;90.70;;;;;;5097360;28;20192;-72
2021/05/17 00:47:40;;;;;;;2.20;1.00;;;10.90;90.60;;;;;;5095497;28;20234;-72
2021/05/17 00:50:09;;;;;;;3.22;1.10;;;10.90;90.50;;;;;;5113353;28;20180;-72
2021/05/17 00:52:37;;;;;;;3.40;1.40;;;11.00;90.60;;;;;;5115919;28;20185;-72
2021/05/17 00:55:06;;;;;;;7.03;2.45;;;11.00;89.60;;;;;;5097203;28;20250;-73
2021/05/17 00:57:33;;;;;;;2.65;1.38;;;11.00;89.50;;;;;;5095566;28;20197;-73
2021/05/17 01:00:02;;;;;;;2.97;1.10;;;11.00;89.50;;;;;;5111861;28;20650;-72
2021/05/17 01:02:29;;;;;;;1.88;0.70;;;11.00;89.90;;;;;;5115829;27;20544;-72
2021/05/17 01:04:56;;;;;;;3.10;1.17;;;11.00;89.70;;;;;;5098455;28;20193;-73
2021/05/17 01:07:26;;;;;;;2.25;0.98;;;11.00;89.20;;;;;;5111977;28;20316;-72
2021/05/17 01:09:57;;;;;;;2.10;1.00;;;11.00;89.90;;;;;;5099935;28;20189;-73
2021/05/17 01:12:25;;;;;;;4.80;0.77;;;11.00;90.00;;;;;;5095095;28;20189;-73
2021/05/17 01:14:56;;;;;;;4.00;0.80;;;11.00;89.90;;;;;;5110439;28;20614;-73
2021/05/17 01:17:25;;;;;;;2.58;0.80;;;11.10;90.00;;;;;;5115540;28;20661;-73
2021/05/17 01:20:02;;;;;;;1.77;0.80;;;11.10;90.10;;;;;;5099816;28;20204;-73
2021/05/17 01:22:37;;;;;;;1.60;0.75;;;11.00;89.60;;;;;;5095232;28;20193;-73
2021/05/17 01:25:07;;;;;;;1.50;0.70;;;11.00;90.30;;;;;;5111803;28;20199;-73
2021/05/17 01:27:35;;;;;;;1.95;0.88;;;11.00;90.20;;;;;;5115631;28;20203;-72
2021/05/17 01:30:03;;;;;;;2.20;0.75;;;11.00;90.20;;;;;;5098496;28;20196;-73
2021/05/17 01:32:31;;;;;;;1.50;0.70;;;11.00;90.10;;;;;;5094668;28;20274;-73
2021/05/17 01:34:59;;;;;;;2.53;0.60;;;11.00;90.00;;;;;;5109668;28;20215;-73
2021/05/17 01:37:29;;;;;;;1.63;1.00;;;11.00;89.50;;;;;;5096397;28;20239;-73
2021/05/17 01:39:57;;;;;;;1.40;0.68;;;11.00;90.00;;;;;;5106926;28;20610;-73
2021/05/17 01:42:25;;;;;;;1.40;0.60;;;11.00;90.30;;;;;;5114535;28;20242;-75
2021/05/17 01:44:53;;;;;;;1.85;1.08;;;10.90;90.00;;;;;;5101555;28;20205;-73
2021/05/17 01:47:23;;;;;;;3.50;1.20;;;10.90;89.40;;;;;;5111516;28;20508;-74
2021/05/17 01:49:52;;;;;;;2.55;1.23;;;10.90;88.80;;;;;;5098259;28;20594;-73
2021/05/17 01:52:19;;;;;;;1.40;0.60;;;10.90;89.00;;;;;;5094443;28;20208;-72
2021/05/17 01:54:49;;;;;;;2.08;0.77;;;10.90;89.30;;;;;;5109464;28;20534;-73
2021/05/17 01:57:16;;;;;;;1.92;0.75;;;10.90;90.00;;;;;;5113495;28;20192;-74
2021/05/17 01:59:44;;;;;;;2.90;0.82;;;10.90;88.70;;;;;;5110194;28;20177;-75
2021/05/17 02:02:11;;;;;;;1.40;0.65;;;10.90;88.20;;;;;;5114506;28;20211;-74
2021/05/17 02:04:38;;;;;;;4.15;0.80;;;10.90;88.60;;;;;;5112487;28;20237;-74
2021/05/17 02:07:05;;;;;;;2.22;0.90;;;10.90;88.10;;;;;;5114354;28;20197;-74
2021/05/17 02:09:37;;;;;;;2.70;0.80;;;10.80;87.10;;;;;;5100102;28;20203;-73
2021/05/17 02:12:04;;;;;;;1.50;0.80;;;10.80;87.70;;;;;;5114232;28;20199;-73
2021/05/17 02:14:31;;;;;;;2.40;1.30;;;10.80;87.90;;;;;;5096074;28;20271;-74
2021/05/17 02:16:59;;;;;;;2.10;1.50;;;10.70;87.90;;;;;;5093748;28;20225;-73
2021/05/17 02:19:27;;;;;;;2.20;1.90;;;10.70;88.50;;;;;;5108903;28;20271;-73
2021/05/17 02:21:54;;;;;;;2.13;1.20;;;10.70;88.90;;;;;;5112144;28;20193;-73
2021/05/17 02:24:21;;;;;;;1.80;1.30;;;10.70;89.00;;;;;;5093728;28;20575;-72
2021/05/17 02:26:48;;;;;;;2.25;1.75;;;10.80;89.50;;;;;;5097459;28;20188;-73
2021/05/17 02:29:15;;;;;;;3.75;1.80;;;10.80;89.80;;;;;;5114089;28;20188;-73
2021/05/17 02:31:43;;;;;;;2.95;1.10;;;10.70;88.80;;;;;;5110611;28;20193;-72
2021/05/17 02:34:11;;;;;;;2.63;1.20;;;10.70;89.20;;;;;;5093752;28;20244;-73
2021/05/17 02:36:38;;;;;;;1.90;1.13;;;10.70;89.20;;;;;;5094464;28;20295;-72
2021/05/17 02:39:07;;;;;;;1.50;0.80;;;10.70;89.70;;;;;;5093617;28;20223;-72
2021/05/17 02:41:36;;;;;;;1.90;0.80;;;10.60;88.10;;;;;;5095092;28;20204;-73
2021/05/17 02:44:03;;;;;;;4.10;1.05;;;10.60;88.40;;;;;;5106836;28;20189;-72
2021/05/17 02:46:30;;;;;;;2.80;0.80;;;10.50;87.30;;;;;;5093758;28;20193;-72
2021/05/17 02:48:57;;;;;;;1.70;0.90;;;10.50;87.90;;;;;;5113836;28;20195;-73
2021/05/17 02:51:26;;;;;;;2.60;0.80;;;10.60;87.20;;;;;;5113097;28;20547;-73
2021/05/17 02:54:29;;;;;;;4.05;1.15;;;10.60;86.60;;;;;;5092426;28;20521;-72
2021/05/17 02:57:09;;;;;;;3.28;1.20;;;10.60;86.50;;;;;;5105775;28;20212;-73
2021/05/17 03:00:08;;;;;;;7.00;1.25;;;10.60;86.70;;;;;;5098902;28;20196;-72
2021/05/17 03:02:54;;;;;;;6.13;1.20;;;10.60;86.60;;;;;;5092802;28;20192;-72
2021/05/17 03:05:22;;;;;;;5.72;0.90;;;10.60;86.10;;;;;;5093095;28;20371;-72
2021/05/17 03:07:59;;;;;;;8.82;1.92;;;10.60;86.00;;;;;;5093241;28;20235;-73
2021/05/17 03:10:28;;;;;;;7.30;0.98;;;10.50;86.20;;;;;;5092946;28;20188;-72
2021/05/17 03:12:57;;;;;;;6.28;2.85;;;10.50;85.90;;;;;;5093726;28;20188;-72
2021/05/17 03:15:26;;;;;;;3.03;0.90;;;10.50;85.40;;;;;;5112910;28;20348;-73
2021/05/17 03:17:55;;;;;;;6.60;1.40;;;10.40;85.60;;;;;;5113186;28;20189;-72
2021/05/17 03:20:22;;;;;;;2.55;0.98;;;10.50;85.40;;;;;;5092977;28;20196;-72
2021/05/17 03:22:52;;;;;;;2.15;1.20;;;10.50;84.90;;;;;;5092506;28;20276;-73
2021/05/17 03:25:23;;;;;;;2.10;0.82;;;10.40;84.40;;;;;;5112417;28;20546;-72
2021/05/17 03:27:50;;;;;;;2.30;1.05;;;10.40;84.70;;;;;;5098519;28;20185;-74
2021/05/17 03:30:18;;;;;;;7.60;0.80;;;10.30;84.30;;;;;;5092552;28;20272;-72
2021/05/17 03:32:45;;;;;;;3.90;1.08;;;10.30;85.00;;;;;;5092087;28;20580;-72
2021/05/17 03:35:12;;;;;;;3.17;1.30;;;10.20;84.60;;;;;;5092695;28;20217;-73
2021/05/17 03:37:38;;;;;;;2.15;0.80;;;10.20;84.10;;;;;;5092389;28;20185;-73
2021/05/17 03:40:10;;;;;;;1.88;0.90;;;10.10;84.30;;;;;;5092318;28;20189;-73
2021/05/17 03:42:38;;;;;;;3.15;1.45;;;10.10;85.10;;;;;;5092666;28;20196;-73
2021/05/17 03:45:06;;;;;;;3.33;1.20;;;10.00;85.40;;;;;;5092760;28;20216;-73
2021/05/17 03:47:33;;;;;;;4.90;1.10;;;10.00;85.00;;;;;;5092602;28;20569;-73
2021/05/17 03:50:00;;;;;;;3.95;1.08;;;10.00;85.00;;;;;;5092228;28;20275;-72
2021/05/17 03:52:27;;;;;;;5.40;1.60;;;9.90;86.00;;;;;;5111332;28;20502;-72
2021/05/17 03:54:54;;;;;;;5.70;1.40;;;9.90;86.40;;;;;;5095752;28;20188;-73
2021/05/17 03:57:21;;;;;;;3.17;0.90;;;9.90;86.30;;;;;;5112744;28;20595;-73
2021/05/17 03:59:48;;;;;;;2.47;0.90;;;9.80;85.70;;;;;;5112194;28;20697;-72
2021/05/17 04:02:18;;;;;;;3.13;1.60;;;9.80;85.70;;;;;;5113028;28;20653;-73
2021/05/17 04:04:53;;;;;;;1.98;0.77;;;9.80;85.90;;;;;;5112077;28;20188;-74
2021/05/17 04:07:30;;;;;;;1.80;0.82;;;9.80;86.10;;;;;;5096608;28;20188;-73
2021/05/17 04:15:24;;;;;;;2.00;0.90;;;9.80;85.80;;;;;;5109250;28;20211;-72
2021/05/17 04:17:50;;;;;;;1.83;0.82;;;9.80;86.70;;;;;;5096547;28;20571;-72
2021/05/17 04:20:22;;;;;;;5.55;1.00;;;9.80;86.60;;;;;;5099497;28;20181;-72
2021/05/17 04:22:49;;;;;;;3.70;0.90;;;9.80;86.30;;;;;;5103929;28;20189;-72
2021/05/17 04:25:17;;;;;;;4.13;1.58;;;9.80;86.00;;;;;;5096903;28;20184;-73
2021/05/17 04:27:44;;;;;;;2.70;1.13;;;9.80;85.40;;;;;;5096329;28;20205;-72
2021/05/17 04:30:12;;;;;;;3.00;1.15;;;9.90;85.80;;;;;;5100957;28;20185;-72
2021/05/17 04:32:39;;;;;;;2.45;1.42;;;9.90;85.80;;;;;;5116382;28;20220;-72
2021/05/17 04:35:07;;;;;;;2.70;1.30;;;10.00;84.00;;;;;;5110919;28;20223;-72
2021/05/17 04:37:33;;;;;;;2.15;1.13;;;10.00;84.10;;;;;;5095758;28;20203;-72
2021/05/17 04:40:00;;;;;;;3.53;1.30;;;10.10;83.50;;;;;;5099801;28;20191;-72
2021/05/17 04:42:27;;;;;;;4.20;1.10;;;10.10;83.30;;;;;;5116684;28;20242;-72
2021/05/17 04:44:54;;;;;;;3.58;1.40;;;10.10;83.70;;;;;;5108374;28;20799;-72
2021/05/17 04:47:21;;;;;;;6.03;1.40;;;10.20;82.10;;;;;;5094758;28;20706;-73
2021/05/17 04:49:48;;;;;;;3.25;1.33;;;10.30;81.60;;;;;;5095182;28;20193;-72
2021/05/17 04:52:14;;;;;;;3.47;1.63;;;10.30;81.20;;;;;;5095257;28;20193;-72
2021/05/17 04:54:41;;;;;;;2.58;1.10;;;10.30;81.70;;;;;;5095383;28;20222;-73
2021/05/17 04:57:08;;;;;;;2.70;1.10;;;10.30;81.30;;;;;;5099075;28;20212;-72
2021/05/17 04:59:35;;;;;;;4.80;1.38;;;10.10;81.40;;;;;;5094935;28;20193;-72
2021/05/17 05:02:02;;;;;;;4.32;1.58;;;10.00;82.70;;;;;;5095794;28;20293;-72
2021/05/17 05:04:30;;;;;;;4.38;1.08;;;10.10;82.80;;;;;;5095570;28;20204;-71
2021/05/17 05:06:57;;;;;;;2.47;1.40;;;10.10;83.20;;;;;;5099402;28;20199;-73
2021/05/17 05:09:23;;;;;;;2.35;1.45;;;10.20;82.10;;;;;;5102962;28;20225;-73
2021/05/17 05:11:51;;;;;;;3.80;1.05;;;10.10;82.00;;;;;;5098961;28;20208;-73
2021/05/17 05:14:17;;;;;;;4.60;1.20;;;10.20;82.00;;;;;;5095321;28;20206;-72
2021/05/17 05:16:46;;;;;;;2.22;0.98;;;10.20;82.60;;;;;;5101346;28;20227;-72
2021/05/17 05:19:13;;;;;;;2.15;1.10;;;10.30;82.50;;;;;;5103130;28;20520;-74
2021/05/17 05:21:40;;;;;;;3.70;1.15;;;10.40;82.90;;;;;;5095017;28;21003;-74
2021/05/17 05:24:08;;;;;;;4.38;1.52;;;10.50;81.70;;;;;;5095550;28;20212;-74
2021/05/17 05:27:01;;;;;;;2.10;0.88;;;10.60;82.20;;;;;;5095379;28;20204;-74
2021/05/17 05:29:46;;;;;;;2.13;1.20;;;10.70;81.80;;;;;;5095098;28;20528;-75
2021/05/17 05:32:23;;;;;;;3.25;1.83;;;10.70;77.40;;;;;;5110552;28;20617;-74
2021/05/17 05:34:52;;;;;;;2.85;1.10;;;10.60;76.90;;;;;;5094445;28;20208;-74
2021/05/17 05:37:22;;;;;;;3.10;1.33;;;10.70;77.10;;;;;;5094978;28;20228;-75
2021/05/17 05:39:49;;;;;;;2.50;1.02;;;10.70;77.40;;;;;;5104242;28;20228;-73
2021/05/17 05:42:16;;;;;;;2.97;1.63;;;10.80;76.40;;;;;;5112728;28;20199;-74
2021/05/17 05:44:47;;;;;;;4.82;1.17;;;10.80;76.50;;;;;;5103026;28;20186;-73
2021/05/17 05:47:16;;;;;;;3.88;1.17;;;10.90;76.50;;;;;;5100742;28;20264;-73
2021/05/17 05:49:44;;;;;;;2.38;0.90;;;10.90;76.40;;;;;;5096382;28;20268;-74
2021/05/17 05:52:12;;;;;;;5.85;1.17;;;11.00;76.70;;;;;;5097312;28;20184;-74
2021/05/17 05:54:40;;;;;;;2.30;1.10;;;11.10;76.70;;;;;;5095314;28;20200;-73
2021/05/17 05:57:08;;;;;;;2.58;1.00;;;11.20;76.40;;;;;;5094626;28;20303;-74
2021/05/17 05:59:34;;;;;;;4.05;1.10;;;11.30;75.10;;;;;;5094613;28;20296;-74
2021/05/17 06:02:01;;;;;;;1.70;0.80;;;11.30;75.10;;;;;;5094533;28;20201;-74
2021/05/17 06:04:27;;;;;;;2.00;1.00;;;11.40;74.00;;;;;;5091600;28;20281;-73
2021/05/17 06:06:54;;;;;;;5.55;0.77;;;11.40;73.40;;;;;;5093919;28;20279;-73
2021/05/17 06:09:21;;;;;;;2.60;1.10;;;11.30;72.50;;;;;;5093993;28;20201;-73
2021/05/17 06:11:48;;;;;;;1.60;0.90;;;11.30;72.60;;;;;;5094398;28;20220;-74
2021/05/17 06:14:16;;;;;;;4.88;1.70;;;11.40;72.60;;;;;;5093890;28;20192;-74
2021/05/17 06:16:42;;;;;;;3.47;1.88;;;11.30;72.70;;;;;;5099307;28;20212;-74
2021/05/17 06:19:10;;;;;;;3.67;0.80;;;11.30;73.20;;;;;;5097083;28;20200;-74
2021/05/17 06:21:37;;;;;;;2.92;1.17;;;11.40;73.50;;;;;;5096745;28;20189;-74
2021/05/17 06:24:04;;;;;;;4.65;1.60;;;11.40;72.50;;;;;;5093876;28;20193;-74
2021/05/17 06:26:33;;;;;;;1.98;1.00;;;11.40;72.00;;;;;;5100173;28;20204;-73
2021/05/17 06:29:00;;;;;;;4.28;1.02;;;11.40;71.60;;;;;;5112372;28;20188;-74
2021/05/17 06:31:27;;;;;;;4.22;0.93;;;11.50;70.90;;;;;;5104489;28;20259;-73
2021/05/17 06:33:54;;;;;;;4.07;1.45;;;11.60;69.60;;;;;;5093532;28;20299;-74
2021/05/17 06:36:21;;;;;;;4.13;1.00;;;11.60;70.50;;;;;;5094524;28;20217;-75
2021/05/17 06:38:50;;;;;;;6.60;1.30;;;11.50;68.80;;;;;;5092605;28;20238;-74
2021/05/17 06:41:17;;;;;;;3.40;0.88;;;11.40;69.80;;;;;;5097856;28;20730;-74
2021/05/17 06:43:45;;;;;;;5.30;1.52;;;11.50;70.20;;;;;;5092297;28;20200;-74
2021/05/17 06:46:12;;;;;;;4.28;2.00;;;11.50;70.10;;;;;;5096790;28;20223;-73
2021/05/17 06:48:50;;;;;;;3.60;1.40;;;11.60;71.20;;;;;;5093099;28;20189;-74
2021/05/17 06:51:18;;;;;;;3.28;1.27;;;11.70;71.80;;;;;;5093234;28;20199;-74
2021/05/17 06:53:46;;;;;;;4.63;2.13;;;11.80;70.80;;;;;;5094921;28;20196;-74
2021/05/17 06:56:19;;;;;;;3.72;1.85;;;11.90;70.00;;;;;;5098475;28;20269;-74
2021/05/17 06:58:54;;;;;;;4.72;1.45;;;12.10;71.40;;;;;;5092397;28;20199;-74
2021/05/17 07:01:22;;;;;;;2.20;1.00;;;12.30;70.90;;;;;;5100320;28;20193;-75
2021/05/17 07:03:49;;;;;;;2.17;1.10;;;12.50;67.50;;;;;;5092700;28;20185;-75
2021/05/17 07:06:21;;;;;;;3.97;1.15;;;12.60;67.80;;;;;;5091488;28;20192;-74
2021/05/17 07:11:48;;;;;;;4.22;1.10;;;12.70;68.00;;;;;;5053300;28;20280;-75
2021/05/17 07:14:19;;;;;;;2.13;0.88;;;12.80;67.00;;;;;;5093831;28;20237;-74
2021/05/17 07:16:47;;;;;;;4.35;1.38;;;13.00;67.70;;;;;;5092281;28;20701;-74
2021/05/17 07:19:14;;;;;;;4.25;1.55;;;13.10;65.80;;;;;;5093641;28;20189;-75
2021/05/17 07:24:27;;;;;;;2.67;0.73;;;13.10;62.60;;;;;;5092645;28;20250;-74
2021/05/17 07:26:54;;;;;;;2.10;1.00;;;13.10;63.70;;;;;;5093855;28;20246;-74
2021/05/17 07:29:22;;;;;;;2.85;1.00;;;13.10;62.80;;;;;;5093083;28;20192;-73
2021/05/17 07:31:52;;;;;;;5.28;1.98;;;13.20;64.30;;;;;;5097603;28;20189;-74
2021/05/17 07:34:20;;;;;;;4.07;2.10;;;13.30;63.80;;;;;;5092684;28;20193;-74
2021/05/17 07:36:47;;;;;;;3.42;0.90;;;13.40;64.50;;;;;;5093651;28;20320;-74
2021/05/17 07:39:15;;;;;;;7.18;1.17;;;13.50;62.10;;;;;;5090962;28;20221;-74
2021/05/17 07:41:43;;;;;;;3.13;0.95;;;13.60;60.60;;;;;;5094629;28;20200;-74
2021/05/17 07:44:11;;;;;;;7.85;0.90;;;13.70;59.70;;;;;;5092742;28;20665;-73
2021/05/17 07:46:38;;;;;;;2.65;0.77;;;13.80;59.30;;;;;;5104087;28;20188;-74
2021/05/17 07:49:11;;;;;;;3.60;1.30;;;13.70;57.80;;;;;;5092214;28;20184;-74
2021/05/17 07:51:39;;;;;;;4.65;1.08;;;13.70;58.30;;;;;;5094079;28;20192;-74
2021/05/17 07:54:10;;;;;;;2.33;1.00;;;13.70;58.20;;;;;;5091980;28;20218;-74
2021/05/17 07:56:41;;;;;;;2.88;1.40;;;13.70;58.40;;;;;;5097369;28;20685;-74
2021/05/17 07:59:08;;;;;;;2.38;0.70;;;13.80;58.80;;;;;;5100200;28;20189;-74
2021/05/17 08:01:35;;;;;;;1.90;0.70;;;13.70;57.80;;;;;;5095902;28;20272;-73
2021/05/17 08:04:04;;;;;;;2.40;0.90;;;13.60;57.20;;;;;;5097234;28;20695;-74
2021/05/17 08:06:31;;;;;;;1.88;0.70;;;13.50;58.20;;;;;;5097640;28;20267;-73
2021/05/17 08:08:58;;;;;;;3.65;1.40;;;13.50;58.80;;;;;;5097448;28;20181;-73
2021/05/17 08:11:24;;;;;;;5.10;1.15;;;13.50;58.40;;;;;;5112745;28;20188;-73
2021/05/17 08:13:51;;;;;;;2.70;0.70;;;13.60;58.50;;;;;;5103143;28;20193;-73
2021/05/17 08:16:19;;;;;;;1.70;1.00;;;13.60;58.20;;;;;;5092568;28;20227;-72
2021/05/17 08:18:46;;;;;;;2.60;1.00;;;13.70;58.30;;;;;;5107644;28;20234;-73
2021/05/17 08:21:15;;;;;;;1.33;0.57;;;14.00;59.10;;;;;;5108396;28;20447;-73
2021/05/17 08:23:42;;;;;;;1.75;0.93;;;14.50;59.40;;;;;;5108035;28;20447;-74
2021/05/17 08:26:09;;;;;;;1.80;0.80;;;14.90;58.10;;;;;;5102977;28;20237;-73
2021/05/17 08:28:37;;;;;;;1.60;0.93;;;15.20;57.30;;;;;;5101091;28;20537;-74
2021/05/17 08:31:03;;;;;;;4.50;0.70;;;15.30;56.10;;;;;;5104501;28;20545;-73
2021/05/17 08:33:30;;;;;;;1.97;0.80;;;15.30;54.70;;;;;;5107404;28;20481;-73
2021/05/17 08:35:57;;;;;;;3.80;1.20;;;15.30;55.90;;;;;;5106598;28;20500;-73
2021/05/17 08:38:24;;;;;;;1.90;1.30;;;15.60;55.50;;;;;;5104622;28;20445;-73
2021/05/17 08:40:53;;;;;;;3.22;1.10;;;15.90;53.50;;;;;;5107174;28;20443;-73
2021/05/17 08:43:20;;;;;;;2.43;0.80;;;16.00;52.60;;;;;;5106562;28;20393;-73
2021/05/17 08:45:47;;;;;;;3.20;1.00;;;16.10;53.20;;;;;;5107077;28;20446;-73
2021/05/17 08:48:14;;;;;;;5.67;1.10;;;16.20;52.30;;;;;;5101882;28;20440;-73
2021/05/17 08:50:45;;;;;;;1.93;0.83;;;16.40;51.60;;;;;;5105357;28;20951;-73
2021/05/17 08:53:12;;;;;;;1.40;0.67;;;16.70;53.00;;;;;;5106241;28;20833;-73
2021/05/17 08:55:41;;;;;;;1.47;0.80;;;17.10;53.00;;;;;;5108382;28;20493;-73
2021/05/17 08:58:08;;;;;;;2.00;1.07;;;17.20;49.80;;;;;;5107129;28;20494;-73
2021/05/17 09:00:35;;;;;;;2.23;0.70;;;17.00;49.30;;;;;;5106849;28;20454;-74
2021/05/17 09:03:02;;;;;;;6.23;0.80;;;17.00;50.40;;;;;;5103550;28;20435;-73
2021/05/17 09:05:31;;;;;;;4.23;0.90;;;17.20;50.10;;;;;;5107422;28;20446;-73
2021/05/17 09:08:01;;;;;;;2.17;0.77;;;17.30;49.40;;;;;;5105955;28;20434;-73
2021/05/17 09:10:31;;;;;;;2.03;0.90;;;17.50;49.20;;;;;;5103808;28;20451;-73
2021/05/17 09:13:04;;;;;;;2.37;0.80;;;17.80;49.40;;;;;;5104367;28;20926;-73
2021/05/17 09:15:34;;;;;;;4.03;0.70;;;17.90;48.20;;;;;;5106107;28;20526;-74
2021/05/17 09:18:02;;;;;;;2.93;0.90;;;17.80;47.60;;;;;;5106361;28;20468;-73
2021/05/17 09:20:40;;;;;;;3.40;2.00;;;18.00;49.40;;;;;;5103968;28;20490;-73
2021/05/17 09:23:15;;;;;;;2.20;1.30;;;18.20;47.20;;;;;;5098703;28;20441;-74
2021/05/17 09:26:06;;;;;;;3.30;0.90;;;18.30;48.50;;;;;;5104303;28;20790;-73
2021/05/17 09:28:37;;;;;;;3.60;0.80;;;18.30;45.80;;;;;;5095490;28;20564;-74
2021/05/17 09:31:05;;;;;;;5.03;0.90;;;18.50;46.30;;;;;;5102604;28;20439;-73
2021/05/17 09:33:48;;;;;;;4.23;0.83;;;18.60;46.20;;;;;;5099171;28;21029;-73
2021/05/17 09:36:26;;;;;;;1.60;0.83;;;18.60;44.60;;;;;;5103191;28;20481;-74
2021/05/17 09:38:58;;;;;;;3.03;0.70;;;18.70;44.20;;;;;;5098456;28;20496;-74
2021/05/17 09:41:36;;;;;;;1.83;0.70;;;18.60;44.60;;;;;;5104344;28;20470;-74
2021/05/17 09:44:05;;;;;;;2.83;1.00;;;18.60;44.50;;;;;;5102223;28;20473;-74
2021/05/17 09:46:57;;;;;;;5.00;2.27;;;18.60;45.10;;;;;;5098878;28;20530;-74
2021/05/17 09:49:35;;;;;;;4.60;1.87;;;18.70;45.10;;;;;;5099446;28;20465;-74
2021/05/17 09:52:16;;;;;;;2.17;0.80;;;18.80;45.10;;;;;;5096564;28;20443;-74
2021/05/17 09:54:55;;;;;;;2.70;0.90;;;19.00;45.20;;;;;;5095507;28;20477;-74
2021/05/17 09:57:24;;;;;;;2.40;0.90;;;19.10;44.10;;;;;;5097924;28;20510;-74
2021/05/17 09:59:55;;;;;;;2.13;0.90;;;19.20;42.40;;;;;;5097525;28;20447;-74
2021/05/17 10:02:29;;;;;;;4.97;2.60;;;19.40;45.40;;;;;;5098028;28;21050;-74
2021/05/17 10:04:56;;;;;;;2.37;1.30;;;19.50;43.40;;;;;;5106433;28;20446;-74
2021/05/17 10:07:24;;;;;;;3.20;1.30;;;19.60;43.10;;;;;;5111385;28;20439;-74
2021/05/17 10:09:52;;;;;;;3.27;0.80;;;19.60;42.70;;;;;;5110124;28;20528;-74
2021/05/17 10:12:22;;;;;;;2.27;0.93;;;19.60;43.30;;;;;;5095102;28;20438;-74
2021/05/17 10:14:48;;;;;;;4.80;0.90;;;19.60;43.90;;;;;;5101621;28;20434;-74
2021/05/17 10:17:16;;;;;;;1.80;0.70;;;19.60;42.10;;;;;;5109804;28;20500;-74
2021/05/17 10:19:43;;;;;;;1.40;0.60;;;19.60;42.20;;;;;;5107834;28;20818;-74
2021/05/17 10:22:09;;;;;;;2.73;0.97;;;19.50;41.60;;;;;;5111075;28;20521;-74
2021/05/17 10:24:36;;;;;;;2.00;0.70;;;19.40;41.50;;;;;;5112541;28;20457;-74
2021/05/17 10:27:04;;;;;;;1.70;0.73;;;19.30;41.30;;;;;;5112156;28;20442;-74
2021/05/17 10:29:33;;;;;;;2.57;1.17;;;19.30;42.10;;;;;;5110831;28;20525;-74
2021/05/17 10:32:01;;;;;;;1.80;0.80;;;19.30;41.40;;;;;;5109733;28;20549;-73
2021/05/17 10:34:32;;;;;;;1.60;0.60;;;19.10;41.60;;;;;;5100779;28;20447;-73
2021/05/17 10:37:00;;;;;;;2.57;0.80;;;18.80;40.80;;;;;;5106657;28;20478;-74
2021/05/17 10:39:35;;;;;;;3.30;0.60;;;18.60;41.50;;;;;;5107960;28;20450;-73
2021/05/17 10:42:18;;;;;;;2.27;0.60;;;18.60;42.40;;;;;;5103205;28;20542;-74
2021/05/17 10:48:24;;;;;;;2.73;1.23;;;18.50;41.70;;;;;;5081461;28;20473;-74
2021/05/17 10:50:53;;;;;;;3.70;2.00;;;18.40;42.60;;;;;;5107390;28;20896;-73
2021/05/17 10:53:42;;;;;;;2.70;1.60;;;18.40;43.10;;;;;;5109770;28;20452;-74
2021/05/17 10:56:10;;;;;;;2.40;0.70;;;18.50;42.60;;;;;;5105613;28;20802;-74
2021/05/17 11:01:53;;;;;;;1.70;0.70;;;18.70;42.60;;;;;;5104607;28;20422;-74
2021/05/17 11:04:30;;;;;;;1.73;0.70;;;18.90;40.90;;;;;;5107091;28;20924;-74
2021/05/17 11:07:24;;;;;;;3.13;0.80;;;19.00;42.90;;;;;;5105209;28;20438;-74
2021/05/17 11:09:57;;;;;;;2.30;0.60;;;19.40;42.10;;;;;;5103238;28;20997;-73
2021/05/17 11:13:06;;;;;;;5.87;0.90;;;19.30;40.80;;;;;;5103201;28;20966;-74
2021/05/17 11:15:52;;;;;;;3.47;0.80;;;19.20;41.60;;;;;;5100467;28;20943;-74
2021/05/17 11:18:43;;;;;;;5.67;3.87;;;19.00;40.70;;;;;;5105279;28;20450;-74
2021/05/17 11:21:22;;;;;;;3.13;1.80;;;18.50;41.20;;;;;;5096150;28;20447;-74
2021/05/17 11:24:02;;;;;;;1.93;0.80;;;18.20;42.90;;;;;;5090777;28;20977;-74
2021/05/17 11:26:32;;;;;;;2.67;0.73;;;17.90;42.60;;;;;;5091418;28;20503;-74
2021/05/17 11:29:09;;;;;;;1.90;0.87;;;17.70;42.10;;;;;;5094769;28;20853;-74
2021/05/17 11:31:46;;;;;;;2.30;1.03;;;17.60;43.70;;;;;;5096473;28;20435;-74
2021/05/17 11:34:25;;;;;;;2.23;0.60;;;17.50;44.70;;;;;;5094253;28;20439;-74
2021/05/17 11:37:07;;;;;;;1.93;0.93;;;17.60;45.90;;;;;;5096988;28;20469;-74
2021/05/17 11:39:35;;;;;;;3.10;0.67;;;17.70;45.10;;;;;;5094152;28;20766;-74
2021/05/17 11:42:04;;;;;;;2.90;0.80;;;17.90;45.70;;;;;;5100235;28;20443;-74
2021/05/17 11:44:34;;;;;;;2.30;0.90;;;18.00;43.10;;;;;;5109627;28;20434;-74
2021/05/17 11:47:03;;;;;;;1.50;0.90;;;18.00;44.20;;;;;;5100772;28;20471;-74
2021/05/17 11:49:32;;;;;;;1.90;0.67;;;18.00;43.30;;;;;;5097779;28;20443;-74
2021/05/17 11:52:01;;;;;;;1.50;0.70;;;18.00;45.00;;;;;;5097303;28;20530;-74
2021/05/17 11:54:34;;;;;;;1.77;0.93;;;18.10;44.30;;;;;;5102499;28;20503;-74
2021/05/17 11:57:02;;;;;;;3.40;1.00;;;18.20;44.60;;;;;;5103139;28;20477;-74
2021/05/17 11:59:30;;;;;;;4.20;0.70;;;18.30;44.70;;;;;;5101810;28;20541;-74
2021/05/17 12:01:59;;;;;;;1.30;0.50;;;18.40;45.10;;;;;;5094770;28;20470;-74
2021/05/17 12:04:29;;;;;;;1.40;0.60;;;18.50;44.80;;;;;;5094321;28;20440;-73
2021/05/17 12:06:59;;;;;;;2.10;0.70;;;18.80;42.70;;;;;;5091598;28;20493;-74
2021/05/17 12:09:33;;;;;;;3.27;0.70;;;18.80;42.10;;;;;;5092566;28;20435;-73
2021/05/17 12:12:02;;;;;;;2.23;1.47;;;18.80;41.80;;;;;;5096719;28;20438;-73
2021/05/17 12:14:30;;;;;;;1.60;0.60;;;18.80;42.40;;;;;;5108874;28;20442;-74
2021/05/17 12:17:02;;;;;;;2.00;0.90;;;18.70;40.20;;;;;;5098688;28;21054;-73
2021/05/17 12:19:29;;;;;;;3.10;0.60;;;18.70;42.80;;;;;;5102373;28;20443;-74
2021/05/17 12:22:03;;;;;;;2.70;0.80;;;18.60;40.90;;;;;;5100476;28;20983;-74
2021/05/17 12:24:31;;;;;;;3.17;0.70;;;18.60;42.20;;;;;;5094194;28;20513;-74
2021/05/17 12:27:03;;;;;;;4.07;0.70;;;18.70;43.00;;;;;;5096165;28;20430;-74
2021/05/17 12:29:53;;;;;;;1.87;0.60;;;18.70;41.20;;;;;;5107741;28;20554;-75
2021/05/17 12:32:25;;;;;;;1.60;0.70;;;18.80;39.70;;;;;;5096065;28;20498;-75
2021/05/17 12:34:56;;;;;;;1.40;0.63;;;18.80;41.30;;;;;;5096349;28;20466;-74
2021/05/17 12:37:28;;;;;;;1.80;0.80;;;18.90;42.20;;;;;;5094626;28;20508;-74
2021/05/17 12:40:22;;;;;;;2.03;0.60;;;18.90;40.50;;;;;;5095601;28;20556;-75
2021/05/17 12:43:01;;;;;;;1.50;0.60;;;19.00;38.80;;;;;;5109137;28;20836;-73
2021/05/17 12:45:36;;;;;;;1.50;0.60;;;19.10;40.30;;;;;;5104254;28;20434;-73
2021/05/17 12:48:09;;;;;;;1.80;0.60;;;19.30;39.00;;;;;;5095811;28;20422;-74
2021/05/17 12:50:36;;;;;;;2.57;0.73;;;19.40;38.90;;;;;;5095881;28;20475;-74
2021/05/17 12:53:06;;;;;;;2.17;0.90;;;19.60;39.30;;;;;;5095444;28;20480;-74
2021/05/17 12:55:44;;;;;;;1.50;0.67;;;19.60;37.80;;;;;;5102873;28;20438;-75
2021/05/17 12:58:13;;;;;;;1.50;0.57;;;19.70;38.90;;;;;;5096104;28;20783;-73
2021/05/17 13:00:52;;;;;;;2.23;0.60;;;19.80;37.40;;;;;;5096247;28;20443;-74
2021/05/17 13:03:23;;;;;;;1.70;0.60;;;19.70;36.50;;;;;;5099501;28;20514;-74
2021/05/17 13:06:01;;;;;;;1.50;0.60;;;19.30;38.30;;;;;;5095552;28;20450;-74
2021/05/17 13:08:30;;;;;;;2.23;1.00;;;18.80;41.20;;;;;;5097984;28;20435;-75
2021/05/17 13:11:04;;;;;;;1.90;0.70;;;18.40;43.60;;;;;;5095093;28;20514;-74
2021/05/17 13:13:56;;;;;;;1.63;0.77;;;17.90;44.60;;;;;;5101265;28;20538;-74
2021/05/17 13:16:27;;;;;;;1.30;0.50;;;17.40;46.40;;;;;;5095023;28;20474;-74
2021/05/17 13:19:14;;;;;;;1.50;0.70;;;17.10;46.50;;;;;;5094045;28;20487;-74
2021/05/17 13:22:01;;;;;;;1.60;0.70;;;16.90;48.30;;;;;;5109376;28;20517;-74